sensor_id;sensor_type;location;lat;lon;timestamp;pressure;altitude;pressure_sealevel;temperature;humidity
3960;BME280;1994;48.640;8.894;2023-02-12T00:01:12;98008.81;;;5.47;83.04
3960;BME280;1994;48.640;8.894;2023-02-12T00:03:39;98001.88;;;5.39;83.40
3960;BME280;1994;48.640;8.894;2023-02-12T00:06:07;97998.81;;;5.44;83.22
3960;BME280;1994;48.640;8.894;2023-02-12T00:08:34;97990.75;;;5.23;84.20
3960;BME280;1994;48.640;8.894;2023-02-12T00:11:06;98006.50;;;5.36;83.85
3960;BME280;1994;48.640;8.894;2023-02-12T00:13:32;97996.53;;;5.33;83.77
3960;BME280;1994;48.640;8.894;2023-02-12T00:15:58;98004.56;;;5.38;83.51
3960;BME280;1994;48.640;8.894;2023-02-12T00:18:24;98002.00;;;5.38;83.40
3960;BME280;1994;48.640;8.894;2023-02-12T00:20:52;97988.53;;;5.44;83.17
3960;BME280;1994;48.640;8.894;2023-02-12T00:23:18;97999.81;;;5.51;82.67
3960;BME280;1994;48.640;8.894;2023-02-12T00:25:44;98007.53;;;5.59;82.00
3960;BME280;1994;48.640;8.894;2023-02-12T00:28:10;98004.56;;;5.38;82.48
3960;BME280;1994;48.640;8.894;2023-02-12T00:30:36;98010.97;;;5.26;83.25
3960;BME280;1994;48.640;8.894;2023-02-12T00:33:02;98014.16;;;5.28;83.14
3960;BME280;1994;48.640;8.894;2023-02-12T00:35:27;98013.59;;;5.34;83.25
3960;BME280;1994;48.640;8.894;2023-02-12T00:37:53;98013.25;;;5.37;83.18
3960;BME280;1994;48.640;8.894;2023-02-12T00:40:19;98003.66;;;5.47;82.66
3960;BME280;1994;48.640;8.894;2023-02-12T00:42:45;98005.25;;;5.48;82.10
3960;BME280;1994;48.640;8.894;2023-02-12T00:45:11;98017.91;;;5.33;82.48
3960;BME280;1994;48.640;8.894;2023-02-12T00:47:36;98011.59;;;5.20;83.28
3960;BME280;1994;48.640;8.894;2023-02-12T00:50:02;98017.84;;;5.25;83.42
3960;BME280;1994;48.640;8.894;2023-02-12T00:52:28;98014.22;;;5.36;82.84
3960;BME280;1994;48.640;8.894;2023-02-12T00:54:54;98012.34;;;5.46;82.23
3960;BME280;1994;48.640;8.894;2023-02-12T00:57:20;98021.66;;;5.55;81.87
3960;BME280;1994;48.640;8.894;2023-02-12T00:59:45;98018.78;;;5.58;81.65
3960;BME280;1994;48.640;8.894;2023-02-12T01:02:12;98024.91;;;5.65;81.54
3960;BME280;1994;48.640;8.894;2023-02-12T01:04:38;98027.16;;;5.60;82.14
3960;BME280;1994;48.640;8.894;2023-02-12T01:07:04;98027.81;;;5.62;81.77
3960;BME280;1994;48.640;8.894;2023-02-12T01:09:29;98027.78;;;5.54;82.67
3960;BME280;1994;48.640;8.894;2023-02-12T01:11:55;98037.41;;;5.52;82.16
3960;BME280;1994;48.640;8.894;2023-02-12T01:14:21;98031.00;;;5.56;82.59
3960;BME280;1994;48.640;8.894;2023-02-12T01:16:49;98021.88;;;5.28;83.60
3960;BME280;1994;48.640;8.894;2023-02-12T01:19:15;98020.88;;;5.13;85.19
3960;BME280;1994;48.640;8.894;2023-02-12T01:21:41;98018.66;;;5.18;85.08
3960;BME280;1994;48.640;8.894;2023-02-12T01:24:10;98012.88;;;5.24;85.00
3960;BME280;1994;48.640;8.894;2023-02-12T01:26:36;98020.06;;;4.87;86.66
3960;BME280;1994;48.640;8.894;2023-02-12T01:29:05;98022.00;;;4.85;86.94
3960;BME280;1994;48.640;8.894;2023-02-12T01:31:35;98025.59;;;5.00;86.90
3960;BME280;1994;48.640;8.894;2023-02-12T01:34:05;98024.06;;;5.15;86.61
3960;BME280;1994;48.640;8.894;2023-02-12T01:36:32;98019.94;;;5.22;86.29
3960;BME280;1994;48.640;8.894;2023-02-12T01:38:58;98024.72;;;5.17;86.33
3960;BME280;1994;48.640;8.894;2023-02-12T01:41:28;98021.47;;;5.07;87.04
3960;BME280;1994;48.640;8.894;2023-02-12T01:46:38;98020.53;;;5.16;87.53
3960;BME280;1994;48.640;8.894;2023-02-12T01:49:12;98014.16;;;5.28;87.86
3960;BME280;1994;48.640;8.894;2023-02-12T01:51:41;98023.84;;;5.34;88.11
3960;BME280;1994;48.640;8.894;2023-02-12T01:54:11;98016.16;;;5.42;87.37
3960;BME280;1994;48.640;8.894;2023-02-12T01:56:41;98026.16;;;5.45;87.62
3960;BME280;1994;48.640;8.894;2023-02-12T01:59:12;98010.09;;;5.51;86.68
3960;BME280;1994;48.640;8.894;2023-02-12T02:01:38;98017.16;;;5.49;86.91
3960;BME280;1994;48.640;8.894;2023-02-12T02:04:11;98016.50;;;5.47;87.08
3960;BME280;1994;48.640;8.894;2023-02-12T02:06:51;98020.53;;;5.49;86.72
3960;BME280;1994;48.640;8.894;2023-02-12T02:09:21;98015.25;;;5.51;86.83
3960;BME280;1994;48.640;8.894;2023-02-12T02:11:47;98014.84;;;5.38;87.35
3960;BME280;1994;48.640;8.894;2023-02-12T02:14:31;98011.84;;;5.42;87.08
3960;BME280;1994;48.640;8.894;2023-02-12T02:17:36;98009.91;;;5.44;86.79
3960;BME280;1994;48.640;8.894;2023-02-12T02:28:59;97996.91;;;5.46;86.64
3960;BME280;1994;48.640;8.894;2023-02-12T02:38:39;97993.84;;;5.42;87.35
3960;BME280;1994;48.640;8.894;2023-02-12T02:41:27;97985.97;;;5.44;87.27
3960;BME280;1994;48.640;8.894;2023-02-12T02:43:54;97992.41;;;5.48;87.27
3960;BME280;1994;48.640;8.894;2023-02-12T02:46:43;97992.06;;;5.43;87.91
3960;BME280;1994;48.640;8.894;2023-02-12T02:49:20;97993.06;;;5.50;87.80
3960;BME280;1994;48.640;8.894;2023-02-12T02:51:56;97989.53;;;5.51;87.97
3960;BME280;1994;48.640;8.894;2023-02-12T02:54:32;97984.88;;;5.54;87.52
3960;BME280;1994;48.640;8.894;2023-02-12T02:59:58;97986.00;;;5.52;87.48
3960;BME280;1994;48.640;8.894;2023-02-12T03:02:36;97980.88;;;5.52;87.08
3960;BME280;1994;48.640;8.894;2023-02-12T03:05:13;97986.97;;;5.51;87.22
3960;BME280;1994;48.640;8.894;2023-02-12T03:07:56;97979.75;;;5.54;86.75
3960;BME280;1994;48.640;8.894;2023-02-12T03:10:34;97980.88;;;5.60;86.68
3960;BME280;1994;48.640;8.894;2023-02-12T03:13:29;97979.91;;;5.61;86.12
3960;BME280;1994;48.640;8.894;2023-02-12T03:16:22;97984.56;;;5.57;86.68
3960;BME280;1994;48.640;8.894;2023-02-12T03:19:04;97983.78;;;5.57;86.23
3960;BME280;1994;48.640;8.894;2023-02-12T03:21:57;97990.00;;;5.46;87.07
3960;BME280;1994;48.640;8.894;2023-02-12T03:24:39;97996.59;;;5.49;87.47
3960;BME280;1994;48.640;8.894;2023-02-12T03:27:21;97993.53;;;5.45;87.53
3960;BME280;1994;48.640;8.894;2023-02-12T03:29:51;97988.25;;;5.47;86.86
3960;BME280;1994;48.640;8.894;2023-02-12T03:38:10;97997.25;;;5.51;86.61
3960;BME280;1994;48.640;8.894;2023-02-12T03:40:57;97999.81;;;5.51;86.98
3960;BME280;1994;48.640;8.894;2023-02-12T03:43:34;97997.84;;;5.37;87.85
3960;BME280;1994;48.640;8.894;2023-02-12T03:46:56;98002.53;;;5.08;89.66
3960;BME280;1994;48.640;8.894;2023-02-12T03:50:16;98006.50;;;5.02;90.13
3960;BME280;1994;48.640;8.894;2023-02-12T03:52:45;98001.94;;;5.14;89.48
3960;BME280;1994;48.640;8.894;2023-02-12T03:55:11;98006.56;;;5.10;89.51
3960;BME280;1994;48.640;8.894;2023-02-12T03:57:46;97999.00;;;5.09;89.11
3960;BME280;1994;48.640;8.894;2023-02-12T04:00:22;98009.78;;;5.12;89.30
3960;BME280;1994;48.640;8.894;2023-02-12T04:02:49;98001.50;;;5.26;88.83
3960;BME280;1994;48.640;8.894;2023-02-12T04:05:24;97988.47;;;5.28;88.85
3960;BME280;1994;48.640;8.894;2023-02-12T04:07:52;97996.50;;;5.25;88.53
3960;BME280;1994;48.640;8.894;2023-02-12T04:13:27;97996.19;;;5.28;88.81
3960;BME280;1994;48.640;8.894;2023-02-12T04:16:24;98003.59;;;5.31;88.38
3960;BME280;1994;48.640;8.894;2023-02-12T04:18:52;98006.81;;;5.33;88.39
3960;BME280;1994;48.640;8.894;2023-02-12T04:27:49;98008.63;;;5.07;89.17
3960;BME280;1994;48.640;8.894;2023-02-12T04:30:43;98016.91;;;4.93;89.66
3960;BME280;1994;48.640;8.894;2023-02-12T04:33:10;98015.56;;;4.81;90.21
3960;BME280;1994;48.640;8.894;2023-02-12T04:41:06;98019.19;;;4.96;90.55
3960;BME280;1994;48.640;8.894;2023-02-12T04:43:35;98023.69;;;5.02;90.11
3960;BME280;1994;48.640;8.894;2023-02-12T04:46:04;98020.78;;;4.97;90.37
3960;BME280;1994;48.640;8.894;2023-02-12T04:48:36;98022.06;;;5.01;90.39
3960;BME280;1994;48.640;8.894;2023-02-12T04:51:03;98023.09;;;5.08;90.13
3960;BME280;1994;48.640;8.894;2023-02-12T04:53:44;98027.59;;;5.14;89.86
3960;BME280;1994;48.640;8.894;2023-02-12T04:56:11;98018.19;;;5.22;89.87
3960;BME280;1994;48.640;8.894;2023-02-12T04:58:39;98031.03;;;5.22;89.72
3960;BME280;1994;48.640;8.894;2023-02-12T05:01:08;98025.06;;;5.22;90.11
3960;BME280;1994;48.640;8.894;2023-02-12T05:03:35;98015.47;;;5.24;90.61
3960;BME280;1994;48.640;8.894;2023-02-12T05:06:06;98020.59;;;5.24;91.50
3960;BME280;1994;48.640;8.894;2023-02-12T05:08:32;98018.81;;;5.24;91.57
3960;BME280;1994;48.640;8.894;2023-02-12T05:11:09;98022.53;;;5.30;91.47
3960;BME280;1994;48.640;8.894;2023-02-12T05:13:36;98018.53;;;5.27;91.91
3960;BME280;1994;48.640;8.894;2023-02-12T05:16:07;98016.44;;;5.31;92.16
3960;BME280;1994;48.640;8.894;2023-02-12T05:18:34;98023.34;;;5.30;92.10
3960;BME280;1994;48.640;8.894;2023-02-12T05:21:03;98018.66;;;5.26;92.31
3960;BME280;1994;48.640;8.894;2023-02-12T05:23:33;98026.69;;;5.23;93.41
3960;BME280;1994;48.640;8.894;2023-02-12T05:26:01;98024.56;;;5.18;93.48
3960;BME280;1994;48.640;8.894;2023-02-12T05:28:28;98017.00;;;5.17;93.63
3960;BME280;1994;48.640;8.894;2023-02-12T05:30:54;98024.41;;;5.12;94.44
3960;BME280;1994;48.640;8.894;2023-02-12T05:33:23;98029.81;;;5.09;94.36
3960;BME280;1994;48.640;8.894;2023-02-12T05:35:49;98033.50;;;5.06;94.29
3960;BME280;1994;48.640;8.894;2023-02-12T05:38:15;98023.72;;;5.10;94.49
3960;BME280;1994;48.640;8.894;2023-02-12T05:40:41;98025.94;;;5.05;94.99
3960;BME280;1994;48.640;8.894;2023-02-12T05:43:08;98029.81;;;5.09;94.97
3960;BME280;1994;48.640;8.894;2023-02-12T05:45:33;98022.75;;;5.11;95.69
3960;BME280;1994;48.640;8.894;2023-02-12T05:48:00;98017.94;;;5.08;95.66
3960;BME280;1994;48.640;8.894;2023-02-12T05:50:27;98022.13;;;5.09;96.33
3960;BME280;1994;48.640;8.894;2023-02-12T05:52:53;98022.47;;;5.14;95.63
3960;BME280;1994;48.640;8.894;2023-02-12T05:55:18;98023.78;;;5.18;96.20
3960;BME280;1994;48.640;8.894;2023-02-12T05:57:44;98018.66;;;5.18;96.13
3960;BME280;1994;48.640;8.894;2023-02-12T06:00:11;98021.00;;;5.11;96.22
3960;BME280;1994;48.640;8.894;2023-02-12T06:02:36;98016.94;;;5.01;97.09
3960;BME280;1994;48.640;8.894;2023-02-12T06:05:02;98013.00;;;4.89;97.35
3960;BME280;1994;48.640;8.894;2023-02-12T06:07:28;98018.84;;;4.99;96.92
3960;BME280;1994;48.640;8.894;2023-02-12T06:09:54;98006.16;;;4.97;96.62
3960;BME280;1994;48.640;8.894;2023-02-12T06:12:23;98012.72;;;4.92;97.14
3960;BME280;1994;48.640;8.894;2023-02-12T06:14:49;98016.53;;;4.88;97.08
3960;BME280;1994;48.640;8.894;2023-02-12T06:17:18;98009.66;;;4.88;96.95
3960;BME280;1994;48.640;8.894;2023-02-12T06:19:44;98011.63;;;4.94;96.31
3960;BME280;1994;48.640;8.894;2023-02-12T06:22:10;98015.16;;;4.93;96.15
3960;BME280;1994;48.640;8.894;2023-02-12T06:24:36;98013.50;;;4.92;96.12
3960;BME280;1994;48.640;8.894;2023-02-12T06:27:04;98015.94;;;4.94;96.75
3960;BME280;1994;48.640;8.894;2023-02-12T06:29:30;98018.84;;;4.99;95.95
3960;BME280;1994;48.640;8.894;2023-02-12T06:31:59;98022.38;;;4.98;96.26
3960;BME280;1994;48.640;8.894;2023-02-12T06:34:24;98029.63;;;5.02;95.72
3960;BME280;1994;48.640;8.894;2023-02-12T06:36:53;98019.84;;;5.06;95.40
3960;BME280;1994;48.640;8.894;2023-02-12T06:39:19;98022.41;;;5.06;95.33
3960;BME280;1994;48.640;8.894;2023-02-12T06:41:47;98028.22;;;5.08;95.13
3960;BME280;1994;48.640;8.894;2023-02-12T06:44:19;98029.47;;;5.04;95.53
3960;BME280;1994;48.640;8.894;2023-02-12T06:46:48;98027.91;;;5.11;94.41
3960;BME280;1994;48.640;8.894;2023-02-12T06:49:17;98027.91;;;5.11;94.54
3960;BME280;1994;48.640;8.894;2023-02-12T06:51:45;98030.47;;;5.11;94.66
3960;BME280;1994;48.640;8.894;2023-02-12T06:54:14;98037.25;;;5.12;94.06
3960;BME280;1994;48.640;8.894;2023-02-12T06:56:42;98039.50;;;5.15;94.35
3960;BME280;1994;48.640;8.894;2023-02-12T06:59:13;98045.13;;;5.18;93.68
3960;BME280;1994;48.640;8.894;2023-02-12T07:01:40;98042.41;;;5.20;94.26
3960;BME280;1994;48.640;8.894;2023-02-12T07:04:06;98048.44;;;5.11;94.56
3960;BME280;1994;48.640;8.894;2023-02-12T07:06:36;98054.41;;;5.11;94.32
3960;BME280;1994;48.640;8.894;2023-02-12T07:09:06;98051.69;;;5.13;94.66
3960;BME280;1994;48.640;8.894;2023-02-12T07:11:34;98053.28;;;5.14;94.98
3960;BME280;1994;48.640;8.894;2023-02-12T07:14:00;98047.19;;;5.15;95.03
3960;BME280;1994;48.640;8.894;2023-02-12T07:16:27;98044.63;;;5.15;95.21
3960;BME280;1994;48.640;8.894;2023-02-12T07:18:53;98051.06;;;5.19;95.04
3960;BME280;1994;48.640;8.894;2023-02-12T07:21:19;98059.91;;;5.24;95.57
3960;BME280;1994;48.640;8.894;2023-02-12T07:23:49;98049.56;;;5.34;95.10
3960;BME280;1994;48.640;8.894;2023-02-12T07:26:16;98056.16;;;5.44;94.71
3960;BME280;1994;48.640;8.894;2023-02-12T07:28:43;98047.38;;;5.55;94.18
3960;BME280;1994;48.640;8.894;2023-02-12T07:31:21;98054.72;;;5.50;93.12
3960;BME280;1994;48.640;8.894;2023-02-12T07:33:55;98053.94;;;5.49;93.02
3960;BME280;1994;48.640;8.894;2023-02-12T07:36:23;98054.13;;;5.56;92.37
3960;BME280;1994;48.640;8.894;2023-02-12T07:38:49;98060.94;;;5.73;92.41
3960;BME280;1994;48.640;8.894;2023-02-12T07:41:25;98055.19;;;5.79;93.21
3960;BME280;1994;48.640;8.894;2023-02-12T07:44:00;98055.34;;;5.85;92.96
3960;BME280;1994;48.640;8.894;2023-02-12T07:46:32;98056.81;;;5.80;92.40
3960;BME280;1994;48.640;8.894;2023-02-12T07:49:07;98063.25;;;5.84;92.30
3960;BME280;1994;48.640;8.894;2023-02-12T07:51:36;98064.78;;;5.69;93.30
3960;BME280;1994;48.640;8.894;2023-02-12T07:54:02;98060.69;;;5.92;92.46
3960;BME280;1994;48.640;8.894;2023-02-12T07:56:32;98062.34;;;6.09;92.29
3960;BME280;1994;48.640;8.894;2023-02-12T07:59:04;98054.97;;;6.22;91.97
3960;BME280;1994;48.640;8.894;2023-02-12T08:01:34;98053.38;;;6.45;91.83
3960;BME280;1994;48.640;8.894;2023-02-12T08:04:11;98057.88;;;6.67;90.42
3960;BME280;1994;48.640;8.894;2023-02-12T08:06:44;98050.13;;;6.83;89.89
3960;BME280;1994;48.640;8.894;2023-02-12T08:09:20;98050.44;;;7.04;88.78
3960;BME280;1994;48.640;8.894;2023-02-12T08:11:46;98047.53;;;6.99;88.50
3960;BME280;1994;48.640;8.894;2023-02-12T08:14:16;98054.53;;;7.29;87.70
3960;BME280;1994;48.640;8.894;2023-02-12T08:16:44;98047.25;;;7.40;86.47
3960;BME280;1994;48.640;8.894;2023-02-12T08:19:11;98040.97;;;7.43;86.75
3960;BME280;1994;48.640;8.894;2023-02-12T08:21:37;98051.28;;;7.43;86.52
3960;BME280;1994;48.640;8.894;2023-02-12T08:24:03;98049.78;;;7.48;86.65
3960;BME280;1994;48.640;8.894;2023-02-12T08:26:32;98055.50;;;7.28;87.56
3960;BME280;1994;48.640;8.894;2023-02-12T08:29:02;98053.94;;;7.19;87.96
3960;BME280;1994;48.640;8.894;2023-02-12T08:31:34;98044.31;;;6.97;89.29
3960;BME280;1994;48.640;8.894;2023-02-12T08:34:04;98041.47;;;6.76;90.32
3960;BME280;1994;48.640;8.894;2023-02-12T08:36:37;98045.50;;;6.62;91.31
3960;BME280;1994;48.640;8.894;2023-02-12T08:39:03;98039.22;;;6.65;90.98
3960;BME280;1994;48.640;8.894;2023-02-12T08:41:30;98050.31;;;6.65;91.34
3960;BME280;1994;48.640;8.894;2023-02-12T08:44:00;98039.22;;;6.65;91.42
3960;BME280;1994;48.640;8.894;2023-02-12T08:46:38;98054.34;;;6.68;91.30
3960;BME280;1994;48.640;8.894;2023-02-12T08:49:09;98043.72;;;6.71;91.62
3960;BME280;1994;48.640;8.894;2023-02-12T08:51:42;98043.09;;;6.61;90.76
3960;BME280;1994;48.640;8.894;2023-02-12T08:54:16;98052.44;;;6.54;92.38
3960;BME280;1994;48.640;8.894;2023-02-12T08:56:43;98052.72;;;6.59;91.92
3960;BME280;1994;48.640;8.894;2023-02-12T08:59:11;98051.78;;;6.60;91.10
3960;BME280;1994;48.640;8.894;2023-02-12T09:01:41;98056.75;;;6.61;91.47
3960;BME280;1994;48.640;8.894;2023-02-12T09:04:20;98050.31;;;6.65;90.80
3960;BME280;1994;48.640;8.894;2023-02-12T09:06:49;98045.97;;;6.50;91.04
3960;BME280;1994;48.640;8.894;2023-02-12T09:09:15;98048.06;;;6.54;91.63
3960;BME280;1994;48.640;8.894;2023-02-12T09:11:42;98055.28;;;6.59;91.51
3960;BME280;1994;48.640;8.894;2023-02-12T09:14:15;98051.13;;;6.58;91.57
3960;BME280;1994;48.640;8.894;2023-02-12T09:16:42;98049.19;;;6.68;91.49
3960;BME280;1994;48.640;8.894;2023-02-12T09:19:12;98052.41;;;6.70;90.82
3960;BME280;1994;48.640;8.894;2023-02-12T09:21:37;98057.56;;;6.78;90.75
3960;BME280;1994;48.640;8.894;2023-02-12T09:24:04;98063.66;;;6.77;89.35
3960;BME280;1994;48.640;8.894;2023-02-12T09:26:30;98056.09;;;6.75;89.81
3960;BME280;1994;48.640;8.894;2023-02-12T09:28:56;98060.25;;;6.92;88.84
3960;BME280;1994;48.640;8.894;2023-02-12T09:31:27;98059.16;;;6.87;88.31
3960;BME280;1994;48.640;8.894;2023-02-12T09:33:59;98066.00;;;7.10;88.00
3960;BME280;1994;48.640;8.894;2023-02-12T09:36:25;98068.09;;;7.31;87.14
3960;BME280;1994;48.640;8.894;2023-02-12T09:38:51;98066.84;;;7.11;86.66
3960;BME280;1994;48.640;8.894;2023-02-12T09:44:49;98070.63;;;7.39;86.30
3960;BME280;1994;48.640;8.894;2023-02-12T09:47:38;98067.44;;;7.29;85.97
3960;BME280;1994;48.640;8.894;2023-02-12T09:53:24;98070.66;;;7.31;85.12
3960;BME280;1994;48.640;8.894;2023-02-12T09:55:53;98072.28;;;7.24;85.12
3960;BME280;1994;48.640;8.894;2023-02-12T09:58:54;98062.88;;;7.47;86.25
3960;BME280;1994;48.640;8.894;2023-02-12T10:01:21;98068.34;;;7.52;85.82
3960;BME280;1994;48.640;8.894;2023-02-12T10:03:50;98078.34;;;7.47;84.26
3960;BME280;1994;48.640;8.894;2023-02-12T10:06:21;98071.31;;;7.17;84.45
3960;BME280;1994;48.640;8.894;2023-02-12T10:09:19;98074.59;;;7.03;84.80
3960;BME280;1994;48.640;8.894;2023-02-12T10:12:03;98072.56;;;7.29;84.83
3960;BME280;1994;48.640;8.894;2023-02-12T10:18:07;98068.13;;;7.15;84.57
3960;BME280;1994;48.640;8.894;2023-02-12T10:26:49;98062.34;;;7.05;85.01
3960;BME280;1994;48.640;8.894;2023-02-12T10:29:24;98068.78;;;7.09;85.71
3960;BME280;1994;48.640;8.894;2023-02-12T10:31:59;98065.53;;;7.07;84.32
3960;BME280;1994;48.640;8.894;2023-02-12T10:34:33;98066.78;;;7.27;84.26
3960;BME280;1994;48.640;8.894;2023-02-12T10:40:22;98055.19;;;7.23;84.00
3960;BME280;1994;48.640;8.894;2023-02-12T10:42:50;98051.34;;;7.27;83.64
3960;BME280;1994;48.640;8.894;2023-02-12T10:45:42;98053.84;;;7.43;83.23
3960;BME280;1994;48.640;8.894;2023-02-12T10:48:30;98052.31;;;7.64;81.93
3960;BME280;1994;48.640;8.894;2023-02-12T10:53:34;98052.00;;;7.98;81.21
3960;BME280;1994;48.640;8.894;2023-02-12T10:56:17;98039.47;;;7.87;80.54
3960;BME280;1994;48.640;8.894;2023-02-12T11:01:33;98032.38;;;8.11;80.92
3960;BME280;1994;48.640;8.894;2023-02-12T11:04:27;98039.28;;;8.19;79.85
3960;BME280;1994;48.640;8.894;2023-02-12T11:07:00;98043.34;;;7.83;80.42
3960;BME280;1994;48.640;8.894;2023-02-12T11:09:42;98040.47;;;7.78;81.15
3960;BME280;1994;48.640;8.894;2023-02-12T11:12:30;98037.09;;;8.08;81.24
3960;BME280;1994;48.640;8.894;2023-02-12T11:15:00;98035.19;;;8.02;80.78
3960;BME280;1994;48.640;8.894;2023-02-12T11:17:38;98030.72;;;8.18;80.49
3960;BME280;1994;48.640;8.894;2023-02-12T11:20:19;98031.25;;;8.14;80.34
3960;BME280;1994;48.640;8.894;2023-02-12T11:23:00;98021.56;;;8.61;79.64
3960;BME280;1994;48.640;8.894;2023-02-12T11:25:36;98022.59;;;8.89;77.96
3960;BME280;1994;48.640;8.894;2023-02-12T11:28:17;98023.91;;;8.48;77.84
3960;BME280;1994;48.640;8.894;2023-02-12T11:33:33;98023.28;;;8.83;77.32
3960;BME280;1994;48.640;8.894;2023-02-12T11:36:10;98025.38;;;8.65;77.45
3960;BME280;1994;48.640;8.894;2023-02-12T11:38:54;98014.72;;;8.68;77.85
3960;BME280;1994;48.640;8.894;2023-02-12T11:41:38;98012.09;;;9.05;77.05
3960;BME280;1994;48.640;8.894;2023-02-12T11:44:18;98015.66;;;9.33;75.70
3960;BME280;1994;48.640;8.894;2023-02-12T11:47:17;98011.16;;;9.56;75.18
3960;BME280;1994;48.640;8.894;2023-02-12T11:52:31;98019.72;;;9.71;73.79
3960;BME280;1994;48.640;8.894;2023-02-12T11:55:01;98013.59;;;9.93;73.54
3960;BME280;1994;48.640;8.894;2023-02-12T12:00:51;98017.94;;;9.57;74.63
3960;BME280;1994;48.640;8.894;2023-02-12T12:03:37;98022.94;;;9.58;74.45
3960;BME280;1994;48.640;8.894;2023-02-12T12:14:56;98010.22;;;9.78;73.18
3960;BME280;1994;48.640;8.894;2023-02-12T12:23:59;98001.69;;;9.63;73.54
3960;BME280;1994;48.640;8.894;2023-02-12T12:26:30;98005.25;;;9.62;74.06
3960;BME280;1994;48.640;8.894;2023-02-12T12:31:51;97999.81;;;10.07;73.51
3960;BME280;1994;48.640;8.894;2023-02-12T12:34:24;97995.44;;;9.72;73.43
3960;BME280;1994;48.640;8.894;2023-02-12T12:43:10;97993.50;;;10.58;71.21
3960;BME280;1994;48.640;8.894;2023-02-12T12:49:09;97990.53;;;10.40;71.86
3960;BME280;1994;48.640;8.894;2023-02-12T12:52:11;97983.38;;;10.00;73.30
3960;BME280;1994;48.640;8.894;2023-02-12T12:55:01;97981.69;;;10.28;72.30
3960;BME280;1994;48.640;8.894;2023-02-12T13:18:35;97970.38;;;9.72;76.02
3960;BME280;1994;48.640;8.894;2023-02-12T13:21:15;97969.44;;;10.01;75.15
3960;BME280;1994;48.640;8.894;2023-02-12T13:24:15;97970.41;;;9.79;75.56
3960;BME280;1994;48.640;8.894;2023-02-12T13:26:56;97964.47;;;9.78;75.64
3960;BME280;1994;48.640;8.894;2023-02-12T13:30:06;97965.88;;;9.31;77.54
3960;BME280;1994;48.640;8.894;2023-02-12T13:35:30;97960.91;;;9.15;78.79
3960;BME280;1994;48.640;8.894;2023-02-12T13:37:58;97959.94;;;8.87;78.78
3960;BME280;1994;48.640;8.894;2023-02-12T13:40:28;97959.75;;;9.03;79.12
3960;BME280;1994;48.640;8.894;2023-02-12T13:46:05;97948.91;;;9.07;78.26
3960;BME280;1994;48.640;8.894;2023-02-12T13:57:01;97950.22;;;8.74;79.52
3960;BME280;1994;48.640;8.894;2023-02-12T14:02:03;97943.44;;;9.17;78.50
3960;BME280;1994;48.640;8.894;2023-02-12T14:04:38;97942.09;;;9.06;79.46
3960;BME280;1994;48.640;8.894;2023-02-12T14:07:09;97941.56;;;9.25;78.69
3960;BME280;1994;48.640;8.894;2023-02-12T14:09:46;97933.78;;;9.40;77.74
3960;BME280;1994;48.640;8.894;2023-02-12T14:15:20;97937.22;;;8.97;78.61
3960;BME280;1994;48.640;8.894;2023-02-12T14:20:33;97932.75;;;8.91;79.05
3960;BME280;1994;48.640;8.894;2023-02-12T14:26:18;97923.13;;;8.85;80.26
3960;BME280;1994;48.640;8.894;2023-02-12T14:33:48;97911.28;;;9.05;79.48
3960;BME280;1994;48.640;8.894;2023-02-12T14:44:37;97900.03;;;9.12;79.07
3960;BME280;1994;48.640;8.894;2023-02-12T14:53:34;97889.75;;;9.19;78.41
3960;BME280;1994;48.640;8.894;2023-02-12T14:56:02;97894.13;;;9.33;78.39
3960;BME280;1994;48.640;8.894;2023-02-12T14:58:31;97903.34;;;9.42;78.04
3960;BME280;1994;48.640;8.894;2023-02-12T15:00:59;97901.50;;;9.36;78.24
3960;BME280;1994;48.640;8.894;2023-02-12T15:03:51;97908.72;;;9.40;77.78
3960;BME280;1994;48.640;8.894;2023-02-12T15:06:35;97904.72;;;9.38;77.97
3960;BME280;1994;48.640;8.894;2023-02-12T15:09:18;97895.09;;;9.32;78.05
3960;BME280;1994;48.640;8.894;2023-02-12T15:12:20;97903.91;;;9.37;78.12
3960;BME280;1994;48.640;8.894;2023-02-12T15:15:11;97906.31;;;9.39;78.02
3960;BME280;1994;48.640;8.894;2023-02-12T15:17:42;97910.75;;;9.45;77.43
3960;BME280;1994;48.640;8.894;2023-02-12T15:20:21;97906.31;;;9.39;77.90
3960;BME280;1994;48.640;8.894;2023-02-12T15:22:48;97902.66;;;9.33;77.99
3960;BME280;1994;48.640;8.894;2023-02-12T15:25:29;97905.50;;;9.38;77.96
3960;BME280;1994;48.640;8.894;2023-02-12T15:28:03;97895.88;;;9.32;77.95
3960;BME280;1994;48.640;8.894;2023-02-12T15:30:34;97891.53;;;9.33;77.89
3960;BME280;1994;48.640;8.894;2023-02-12T15:33:04;97894.47;;;9.30;78.17
3960;BME280;1994;48.640;8.894;2023-02-12T15:35:35;97896.63;;;9.26;78.16
3960;BME280;1994;48.640;8.894;2023-02-12T15:38:02;97896.19;;;9.23;78.25
3960;BME280;1994;48.640;8.894;2023-02-12T15:40:30;97902.44;;;9.14;78.73
3960;BME280;1994;48.640;8.894;2023-02-12T15:43:02;97898.38;;;9.05;78.80
3960;BME280;1994;48.640;8.894;2023-02-12T15:45:34;97898.38;;;9.05;78.99
3960;BME280;1994;48.640;8.894;2023-02-12T15:50:32;97901.03;;;8.97;78.78
3960;BME280;1994;48.640;8.894;2023-02-12T15:52:59;97895.84;;;8.97;79.05
3960;BME280;1994;48.640;8.894;2023-02-12T15:55:27;97895.50;;;9.00;79.29
3960;BME280;1994;48.640;8.894;2023-02-12T15:57:58;97893.66;;;8.94;79.39
3960;BME280;1994;48.640;8.894;2023-02-12T16:00:31;97902.13;;;8.88;79.68
3960;BME280;1994;48.640;8.894;2023-02-12T16:03:00;97894.44;;;8.80;79.85
3960;BME280;1994;48.640;8.894;2023-02-12T16:05:26;97896.75;;;8.75;79.90
3960;BME280;1994;48.640;8.894;2023-02-12T16:07:53;97901.06;;;8.68;80.29
3960;BME280;1994;48.640;8.894;2023-02-12T16:10:20;97898.09;;;8.56;80.66
3960;BME280;1994;48.640;8.894;2023-02-12T16:12:47;97886.97;;;8.56;80.67
3960;BME280;1994;48.640;8.894;2023-02-12T16:15:29;97899.63;;;8.51;81.05
3960;BME280;1994;48.640;8.894;2023-02-12T16:17:57;97901.94;;;8.46;81.24
3960;BME280;1994;48.640;8.894;2023-02-12T16:20:29;97899.06;;;8.41;81.34
3960;BME280;1994;48.640;8.894;2023-02-12T16:22:56;97897.81;;;8.37;82.10
3960;BME280;1994;48.640;8.894;2023-02-12T16:25:31;97898.97;;;8.34;81.88
3960;BME280;1994;48.640;8.894;2023-02-12T16:28:05;97900.13;;;8.32;82.15
3960;BME280;1994;48.640;8.894;2023-02-12T16:30:40;97901.53;;;8.20;82.32
3960;BME280;1994;48.640;8.894;2023-02-12T16:46:45;97900.19;;;8.01;83.26
3960;BME280;1994;48.640;8.894;2023-02-12T16:49:17;97900.03;;;8.03;83.40
3960;BME280;1994;48.640;8.894;2023-02-12T16:51:45;97907.50;;;7.98;83.48
3960;BME280;1994;48.640;8.894;2023-02-12T16:54:30;97907.81;;;7.95;83.53
3960;BME280;1994;48.640;8.894;2023-02-12T16:56:57;97913.63;;;7.97;83.62
3960;BME280;1994;48.640;8.894;2023-02-12T16:59:26;97907.81;;;7.95;83.64
3960;BME280;1994;48.640;8.894;2023-02-12T17:02:13;97912.97;;;7.95;83.41
3960;BME280;1994;48.640;8.894;2023-02-12T17:04:40;97917.25;;;7.88;83.98
3960;BME280;1994;48.640;8.894;2023-02-12T17:07:21;97915.03;;;7.85;84.23